createdAt,value
2023-04-21T00:01:50.138Z,6.90
2023-04-21T00:04:18.107Z,7.38
2023-04-21T00:06:45.742Z,6.22
2023-04-21T00:09:12.705Z,5.60
2023-04-21T00:11:39.485Z,5.63
2023-04-21T00:14:06.374Z,8.05
2023-04-21T00:16:33.447Z,7.22
2023-04-21T00:19:00.533Z,7.18
2023-04-21T00:21:27.423Z,8.00
2023-04-21T00:23:54.302Z,8.07
2023-04-21T00:26:21.237Z,6.63
2023-04-21T00:28:50.293Z,11.50
2023-04-21T00:31:17.334Z,4.45
2023-04-21T00:33:44.334Z,12.50
2023-04-21T00:36:11.284Z,7.85
2023-04-21T00:38:38.223Z,7.75
2023-04-21T00:41:05.109Z,10.73
2023-04-21T00:43:32.178Z,7.53
2023-04-21T00:45:59.205Z,5.50
2023-04-21T00:48:26.170Z,10.32
2023-04-21T00:50:53.013Z,7.07
2023-04-21T00:53:20.834Z,16.08
2023-04-21T00:55:47.771Z,14.73
2023-04-21T00:58:14.755Z,7.07
2023-04-21T01:00:43.031Z,6.28
2023-04-21T01:03:10.078Z,7.90
2023-04-21T01:05:37.148Z,7.93
2023-04-21T01:08:04.486Z,16.35
2023-04-21T01:10:31.428Z,5.65
2023-04-21T01:12:58.324Z,11.35
2023-04-21T01:15:26.115Z,5.28
2023-04-21T01:17:54.300Z,5.90
2023-04-21T01:20:21.304Z,7.38
2023-04-21T01:22:49.972Z,6.35
2023-04-21T01:25:18.571Z,9.13
2023-04-21T01:27:45.554Z,6.80
2023-04-21T01:30:13.016Z,7.22
2023-04-21T01:32:39.922Z,9.32
2023-04-21T01:35:08.558Z,14.68
2023-04-21T01:37:38.018Z,7.68
2023-04-21T01:40:09.237Z,7.25
2023-04-21T01:42:42.793Z,7.75
2023-04-21T01:45:10.522Z,7.28
2023-04-21T01:47:37.794Z,7.38
2023-04-21T01:50:06.697Z,8.70
2023-04-21T01:52:33.536Z,7.82
2023-04-21T01:55:01.101Z,10.02
2023-04-21T01:57:27.980Z,11.43
2023-04-21T01:59:54.865Z,12.43
2023-04-21T02:02:22.003Z,12.13
2023-04-21T02:04:51.031Z,10.93
2023-04-21T02:07:17.837Z,13.65
2023-04-21T02:09:44.715Z,10.52
2023-04-21T02:12:11.576Z,11.77
2023-04-21T02:14:42.508Z,6.65
2023-04-21T02:17:09.377Z,11.23
2023-04-21T02:19:36.549Z,11.75
2023-04-21T02:22:04.170Z,10.75
2023-04-21T02:24:31.278Z,10.55
2023-04-21T02:26:58.688Z,10.55
2023-04-21T02:29:28.726Z,10.63
2023-04-21T02:32:02.917Z,11.10
2023-04-21T02:34:38.126Z,8.73
2023-04-21T02:37:05.089Z,9.35
2023-04-21T02:39:31.909Z,8.95
2023-04-21T02:41:58.891Z,8.90
2023-04-21T02:44:27.736Z,13.30
2023-04-21T02:46:54.700Z,11.35
2023-04-21T02:49:21.831Z,8.75
2023-04-21T02:51:48.851Z,8.13
2023-04-21T02:54:15.807Z,10.95
2023-04-21T02:56:42.770Z,8.90
2023-04-21T02:59:11.520Z,9.13
2023-04-21T03:01:39.805Z,8.05
2023-04-21T03:04:08.477Z,10.77
2023-04-21T03:06:35.461Z,8.07
2023-04-21T03:09:02.420Z,7.90
2023-04-21T03:11:29.252Z,9.95
2023-04-21T03:13:56.100Z,6.82
2023-04-21T03:16:23.174Z,8.50
2023-04-21T03:18:50.134Z,9.93
2023-04-21T03:21:17.151Z,9.05
2023-04-21T03:23:44.009Z,13.73
2023-04-21T03:26:11.531Z,10.93
2023-04-21T03:28:38.375Z,10.30
2023-04-21T03:31:05.471Z,9.40
2023-04-21T03:33:32.474Z,10.70
2023-04-21T03:35:59.393Z,10.20
2023-04-21T03:38:30.179Z,9.57
2023-04-21T03:40:57.259Z,11.82
2023-04-21T03:43:24.115Z,8.43
2023-04-21T03:45:51.767Z,14.05
2023-04-21T03:48:19.297Z,10.15
2023-04-21T03:50:46.190Z,9.32
2023-04-21T03:53:13.075Z,16.55
2023-04-21T03:55:39.951Z,19.77
2023-04-21T03:58:07.841Z,17.17
2023-04-21T04:00:34.652Z,19.60
2023-04-21T04:03:01.668Z,16.73
2023-04-21T04:05:28.799Z,9.77
2023-04-21T04:07:55.784Z,14.23
2023-04-21T04:10:22.588Z,11.43
2023-04-21T04:12:49.684Z,7.05
2023-04-21T04:15:16.672Z,7.72
2023-04-21T04:17:43.636Z,13.35
2023-04-21T04:20:10.701Z,6.85
2023-04-21T04:22:37.630Z,8.88
2023-04-21T04:25:05.445Z,6.22
2023-04-21T04:27:32.486Z,10.63
2023-04-21T04:29:59.350Z,5.78
2023-04-21T04:32:29.486Z,11.88
2023-04-21T04:34:56.467Z,16.83
2023-04-21T04:37:23.327Z,16.98
2023-04-21T04:39:53.430Z,14.60
2023-04-21T04:42:25.227Z,15.18
2023-04-21T04:44:57.355Z,12.88
2023-04-21T04:47:24.227Z,11.23
2023-04-21T04:49:51.275Z,10.02
2023-04-21T04:52:18.105Z,10.77
2023-04-21T04:54:44.951Z,12.05
2023-04-21T04:57:11.997Z,9.13
2023-04-21T04:59:38.868Z,12.20
2023-04-21T05:02:07.733Z,10.98
2023-04-21T05:04:34.904Z,9.07
2023-04-21T05:07:01.894Z,11.57
2023-04-21T05:09:28.766Z,11.23
2023-04-21T05:11:55.673Z,8.75
2023-04-21T05:14:22.612Z,10.10
2023-04-21T05:16:49.510Z,8.55
2023-04-21T05:19:18.567Z,6.95
2023-04-21T05:21:45.918Z,8.02
2023-04-21T05:24:12.808Z,11.13
2023-04-21T05:26:39.810Z,7.85
2023-04-21T05:29:06.826Z,5.25
2023-04-21T05:31:33.857Z,11.57
2023-04-21T05:34:00.694Z,12.63
2023-04-21T05:36:28.038Z,7.00
2023-04-21T05:38:55.210Z,9.05
2023-04-21T05:41:22.701Z,9.82
2023-04-21T05:43:49.826Z,9.77
2023-04-21T05:46:16.755Z,6.90
2023-04-21T05:48:43.715Z,7.53
2023-04-21T05:51:15.691Z,9.45
2023-04-21T05:53:44.191Z,8.05
2023-04-21T05:56:11.866Z,6.30
2023-04-21T05:58:39.045Z,5.90
2023-04-21T06:01:09.507Z,5.97
2023-04-21T06:03:36.671Z,4.47
2023-04-21T06:06:04.787Z,4.35
2023-04-21T06:08:31.967Z,6.68
2023-04-21T06:10:58.967Z,4.18
2023-04-21T06:13:27.593Z,6.13
2023-04-21T06:15:55.114Z,5.95
2023-04-21T06:18:22.369Z,4.20
2023-04-21T06:20:53.091Z,10.95
2023-04-21T06:23:20.606Z,6.80
2023-04-21T06:25:48.165Z,6.88
2023-04-21T06:28:15.084Z,7.47
2023-04-21T06:30:41.993Z,9.02
2023-04-21T06:33:09.469Z,7.28
2023-04-21T06:35:36.528Z,4.15
2023-04-21T06:38:03.612Z,7.00
2023-04-21T06:40:30.511Z,4.18
2023-04-21T06:42:57.500Z,14.20
2023-04-21T06:45:24.481Z,4.18
2023-04-21T06:47:51.464Z,6.43
2023-04-21T06:50:18.348Z,9.48
2023-04-21T06:52:45.275Z,3.72
2023-04-21T06:55:12.200Z,6.35
2023-04-21T06:57:39.132Z,4.95
2023-04-21T07:00:06.876Z,3.88
2023-04-21T07:02:33.784Z,4.85
2023-04-21T07:05:01.045Z,5.20
2023-04-21T07:07:27.890Z,5.95
2023-04-21T07:09:54.737Z,9.68
2023-04-21T07:12:21.937Z,7.18
2023-04-21T07:14:48.837Z,10.00
2023-04-21T07:17:15.815Z,8.32
2023-04-21T07:19:42.676Z,7.63
2023-04-21T07:22:09.516Z,8.40
2023-04-21T07:24:37.502Z,4.93
2023-04-21T07:27:04.437Z,4.03
2023-04-21T07:29:31.348Z,8.80
2023-04-21T07:31:58.697Z,14.15
2023-04-21T07:34:25.851Z,25.45
2023-04-21T07:36:53.409Z,5.00
2023-04-21T07:39:20.497Z,4.82
2023-04-21T07:41:48.002Z,4.78
2023-04-21T07:44:14.804Z,3.58
2023-04-21T07:46:41.857Z,4.70
2023-04-21T07:49:08.916Z,5.28
2023-04-21T07:51:36.001Z,6.35
2023-04-21T07:54:03.024Z,6.90
2023-04-21T07:56:29.923Z,9.63
2023-04-21T07:58:56.721Z,6.38
2023-04-21T08:01:23.924Z,7.70
2023-04-21T08:03:50.834Z,3.85
2023-04-21T08:06:17.941Z,4.30
2023-04-21T08:08:44.956Z,4.32
2023-04-21T08:11:11.806Z,8.70
2023-04-21T08:13:38.684Z,5.68
2023-04-21T08:16:05.811Z,8.88
2023-04-21T08:18:32.788Z,8.77
2023-04-21T08:21:00.006Z,8.43
2023-04-21T08:23:27.200Z,6.50
2023-04-21T08:25:54.105Z,5.00
2023-04-21T08:28:20.995Z,6.38
2023-04-21T08:30:47.914Z,6.53
2023-04-21T08:33:15.028Z,7.45
2023-04-21T08:35:55.036Z,6.07
2023-04-21T08:38:29.021Z,17.05
2023-04-21T08:40:56.360Z,7.32
2023-04-21T08:43:23.187Z,6.68
2023-04-21T08:45:50.564Z,9.45
2023-04-21T08:48:20.209Z,7.47
2023-04-21T08:50:49.066Z,4.93
2023-04-21T08:53:16.824Z,5.90
2023-04-21T08:55:44.312Z,6.13
2023-04-21T08:58:12.127Z,4.63
2023-04-21T09:00:41.511Z,6.05
2023-04-21T09:03:19.477Z,3.67
2023-04-21T09:06:05.644Z,4.47
2023-04-21T09:08:33.813Z,10.93
2023-04-21T09:11:01.784Z,5.30
2023-04-21T09:13:36.974Z,7.35
2023-04-21T09:16:08.519Z,5.07
2023-04-21T09:18:40.374Z,7.85
2023-04-21T09:23:49.693Z,4.60
2023-04-21T09:26:18.693Z,3.97
2023-04-21T09:28:47.193Z,2.60
2023-04-21T09:31:16.944Z,7.50
2023-04-21T09:33:57.808Z,4.57
2023-04-21T09:36:32.166Z,3.25
2023-04-21T09:41:32.736Z,7.70
2023-04-21T09:44:16.425Z,8.18
2023-04-21T09:46:45.070Z,4.22
2023-04-21T09:49:14.078Z,5.35
2023-04-21T09:52:10.445Z,3.90
2023-04-21T09:54:34.333Z,3.50
2023-04-21T09:57:04.064Z,7.20
2023-04-21T09:59:35.863Z,6.53
2023-04-21T10:04:35.287Z,6.40
2023-04-21T10:07:03.565Z,5.10
2023-04-21T10:09:45.351Z,3.42
2023-04-21T10:12:13.711Z,5.70
2023-04-21T10:14:40.515Z,6.43
2023-04-21T10:17:10.117Z,5.20
2023-04-21T10:19:47.839Z,5.95
2023-04-21T10:22:14.720Z,2.65
2023-04-21T10:24:42.625Z,5.18
2023-04-21T10:27:36.436Z,5.90
2023-04-21T10:30:24.027Z,3.67
2023-04-21T10:33:03.231Z,2.00
2023-04-21T10:36:10.010Z,7.13
2023-04-21T10:38:41.804Z,4.95
2023-04-21T10:41:27.431Z,7.60
2023-04-21T10:43:54.389Z,2.90
2023-04-21T10:46:41.911Z,5.68
2023-04-21T10:49:14.491Z,8.15
2023-04-21T10:52:03.217Z,5.43
2023-04-21T10:54:52.672Z,2.92
2023-04-21T10:57:20.754Z,8.65
2023-04-21T10:59:48.456Z,2.40
2023-04-21T11:02:17.191Z,3.67
2023-04-21T11:04:50.832Z,3.95
2023-04-21T11:07:23.353Z,4.30
2023-04-21T11:10:11.496Z,3.33
2023-04-21T11:12:40.088Z,3.22
2023-04-21T11:15:11.330Z,4.90
2023-04-21T11:17:40.164Z,2.28
2023-04-21T11:20:07.885Z,4.15
2023-04-21T11:22:37.094Z,4.93
2023-04-21T11:25:04.667Z,5.88
2023-04-21T11:27:31.502Z,2.85
2023-04-21T11:29:58.771Z,3.45
2023-04-21T11:32:25.897Z,3.25
2023-04-21T11:34:52.940Z,5.50
2023-04-21T11:37:27.079Z,2.97
2023-04-21T11:40:01.075Z,5.53
2023-04-21T11:42:28.337Z,4.75
2023-04-21T11:44:56.784Z,5.38
2023-04-21T11:47:25.580Z,2.47
2023-04-21T11:49:57.927Z,2.33
2023-04-21T11:52:29.646Z,4.45
2023-04-21T11:55:06.534Z,37.03
2023-04-21T11:57:34.227Z,3.28
2023-04-21T12:00:13.483Z,2.58
2023-04-21T12:02:40.966Z,3.83
2023-04-21T12:05:12.647Z,1.65
2023-04-21T12:07:43.600Z,3.25
2023-04-21T12:10:15.283Z,5.23
2023-04-21T12:12:42.749Z,3.08
2023-04-21T12:15:11.704Z,3.25
2023-04-21T12:17:46.382Z,3.78
2023-04-21T12:20:16.297Z,1.90
2023-04-21T12:22:43.316Z,2.88
2023-04-21T12:25:10.317Z,3.58
2023-04-21T12:27:37.441Z,4.30
2023-04-21T12:30:04.924Z,3.90
2023-04-21T12:32:32.022Z,4.03
2023-04-21T12:35:00.686Z,3.08
2023-04-21T12:37:27.509Z,1.60
2023-04-21T12:39:54.445Z,3.47
2023-04-21T12:42:21.574Z,3.63
2023-04-21T12:44:48.474Z,7.25
2023-04-21T12:47:15.682Z,1.75
2023-04-21T12:49:42.645Z,1.85
2023-04-21T12:52:09.991Z,3.92
2023-04-21T12:54:36.832Z,4.15
2023-04-21T12:57:03.912Z,2.47
2023-04-21T12:59:30.922Z,2.97
2023-04-21T13:01:57.955Z,5.20
2023-04-21T13:04:25.215Z,3.30
2023-04-21T13:06:52.447Z,5.60
2023-04-21T13:09:19.298Z,3.50
2023-04-21T13:11:46.247Z,3.58
2023-04-21T13:14:13.762Z,4.68
2023-04-21T13:16:40.997Z,2.22
2023-04-21T13:19:08.161Z,1.83
2023-04-21T13:21:35.065Z,1.90
2023-04-21T13:24:02.947Z,2.78
2023-04-21T13:26:33.597Z,1.95
2023-04-21T13:29:04.662Z,1.48
2023-04-21T13:31:36.126Z,3.85
2023-04-21T13:34:03.566Z,9.48
2023-04-21T13:36:31.722Z,1.67
2023-04-21T13:39:02.099Z,1.98
2023-04-21T13:41:29.168Z,5.10
2023-04-21T13:43:56.167Z,4.32
2023-04-21T13:46:23.170Z,5.93
2023-04-21T13:48:51.738Z,2.00
2023-04-21T13:51:20.770Z,2.35
2023-04-21T13:53:48.297Z,2.08
2023-04-21T13:56:15.487Z,5.00
2023-04-21T13:58:43.006Z,6.03
2023-04-21T14:01:13.165Z,1.65
2023-04-21T14:03:40.822Z,3.97
2023-04-21T14:06:07.988Z,3.08
2023-04-21T14:08:35.734Z,3.20
2023-04-21T14:11:03.407Z,1.48
2023-04-21T14:16:01.059Z,2.58
2023-04-21T14:18:28.223Z,2.42
2023-04-21T14:20:55.303Z,5.43
2023-04-21T14:23:22.132Z,6.60
2023-04-21T14:25:49.115Z,2.58
2023-04-21T14:28:15.916Z,1.80
2023-04-21T14:30:43.218Z,1.75
2023-04-21T14:33:10.404Z,1.38
2023-04-21T14:35:37.778Z,3.67
2023-04-21T14:38:04.713Z,7.70
2023-04-21T14:40:31.779Z,4.68
2023-04-21T14:42:58.991Z,4.93
2023-04-21T14:45:25.899Z,2.05
2023-04-21T14:47:53.200Z,6.63
2023-04-21T14:50:20.304Z,1.52
2023-04-21T14:52:49.654Z,2.55
2023-04-21T14:55:17.331Z,3.35
2023-04-21T14:57:44.342Z,1.77
2023-04-21T15:00:12.349Z,1.55
2023-04-21T15:02:42.395Z,1.75
2023-04-21T15:05:09.534Z,1.40
2023-04-21T15:07:36.632Z,2.60
2023-04-21T15:10:03.723Z,6.32
2023-04-21T15:12:30.819Z,1.17
2023-04-21T15:14:57.795Z,1.77
2023-04-21T15:17:24.722Z,1.13
2023-04-21T15:19:51.684Z,1.23
2023-04-21T15:22:18.951Z,1.58
2023-04-21T15:24:46.563Z,4.28
2023-04-21T15:27:13.412Z,2.40
2023-04-21T15:29:40.594Z,1.88
2023-04-21T15:32:07.678Z,0.98
2023-04-21T15:34:34.591Z,2.47
2023-04-21T15:37:01.631Z,2.05
2023-04-21T15:39:28.500Z,1.45
2023-04-21T15:41:55.992Z,4.70
2023-04-21T15:44:22.983Z,1.02
2023-04-21T15:46:50.679Z,7.30
2023-04-21T15:49:17.700Z,1.02
2023-04-21T15:51:44.696Z,2.25
2023-04-21T15:54:11.571Z,2.40
2023-04-21T15:56:38.455Z,0.82
2023-04-21T15:59:05.375Z,0.98
2023-04-21T16:01:32.343Z,1.20
2023-04-21T16:03:59.625Z,2.17
2023-04-21T16:06:29.439Z,10.57
2023-04-21T16:08:57.304Z,4.93
2023-04-21T16:11:25.237Z,7.22
2023-04-21T16:13:52.445Z,5.80
2023-04-21T16:16:19.423Z,8.07
2023-04-21T16:18:46.452Z,26.00
2023-04-21T16:21:13.421Z,15.25
2023-04-21T16:23:40.520Z,8.45
2023-04-21T16:26:09.113Z,4.25
2023-04-21T16:28:36.221Z,3.17
2023-04-21T16:31:03.574Z,2.35
2023-04-21T16:33:30.955Z,1.52
2023-04-21T16:35:57.967Z,2.60
2023-04-21T16:38:24.916Z,1.95
2023-04-21T16:40:52.078Z,3.10
2023-04-21T16:43:19.083Z,4.32
2023-04-21T16:45:46.164Z,4.32
2023-04-21T16:48:13.295Z,1.90
2023-04-21T16:50:41.902Z,2.70
2023-04-21T16:53:09.050Z,2.70
2023-04-21T16:55:36.046Z,3.03
2023-04-21T16:58:02.908Z,4.55
2023-04-21T17:00:30.538Z,3.65
2023-04-21T17:02:57.795Z,5.13
2023-04-21T17:05:24.924Z,4.13
2023-04-21T17:07:51.943Z,5.50
2023-04-21T17:10:18.912Z,4.07
2023-04-21T17:12:46.431Z,6.38
2023-04-21T17:15:13.472Z,3.42
2023-04-21T17:17:43.148Z,2.45
2023-04-21T17:20:12.179Z,3.47
2023-04-21T17:22:39.768Z,2.90
2023-04-21T17:25:07.889Z,5.60
2023-04-21T17:27:36.174Z,9.63
2023-04-21T17:30:09.047Z,9.95
2023-04-21T17:32:37.225Z,4.15
2023-04-21T17:35:05.843Z,6.70
2023-04-21T17:37:34.121Z,3.70
2023-04-21T17:40:03.151Z,16.10
2023-04-21T17:42:30.750Z,5.05
2023-04-21T17:44:57.903Z,9.40
2023-04-21T17:47:24.824Z,4.43
2023-04-21T17:49:52.037Z,10.77
2023-04-21T17:52:18.994Z,5.72
2023-04-21T17:54:46.191Z,16.98
2023-04-21T17:57:13.340Z,4.35
2023-04-21T17:59:40.240Z,7.10
2023-04-21T18:02:07.597Z,9.50
2023-04-21T18:04:34.924Z,4.63
2023-04-21T18:07:02.970Z,14.02
2023-04-21T18:09:29.907Z,28.73
2023-04-21T18:11:57.077Z,28.35
2023-04-21T18:14:24.931Z,20.98
2023-04-21T18:16:51.846Z,38.42
2023-04-21T18:19:18.807Z,46.22
2023-04-21T18:21:45.924Z,50.63
2023-04-21T18:24:12.802Z,27.30
2023-04-21T18:26:39.694Z,150.98
2023-04-21T18:29:06.859Z,64.53
2023-04-21T18:31:34.521Z,98.10
2023-04-21T18:34:01.488Z,45.47
2023-04-21T18:36:30.746Z,20.80
2023-04-21T18:38:59.286Z,19.42
2023-04-21T18:41:41.214Z,8.32
2023-04-21T18:44:12.357Z,5.47
2023-04-21T18:46:45.727Z,4.13
2023-04-21T18:51:43.001Z,4.30
2023-04-21T18:54:13.861Z,3.28
2023-04-21T18:56:43.113Z,2.75
2023-04-21T18:59:14.561Z,3.30
2023-04-21T19:01:45.651Z,8.25
2023-04-21T19:04:16.787Z,8.38
2023-04-21T19:06:47.856Z,4.00
2023-04-21T19:09:25.689Z,5.78
2023-04-21T19:12:05.703Z,2.97
2023-04-21T19:14:46.469Z,5.33
2023-04-21T19:17:17.500Z,4.65
2023-04-21T19:19:48.605Z,4.03
2023-04-21T19:22:22.040Z,3.40
2023-04-21T19:24:53.153Z,4.05
2023-04-21T19:27:20.757Z,3.05
2023-04-21T19:29:48.791Z,5.68
2023-04-21T19:32:16.576Z,3.67
2023-04-21T19:34:44.192Z,5.30
2023-04-21T19:37:11.324Z,4.90
2023-04-21T19:39:46.095Z,6.78
2023-04-21T19:42:15.528Z,6.80
2023-04-21T19:44:45.054Z,4.80
2023-04-21T19:47:13.707Z,6.13
2023-04-21T19:49:53.295Z,4.18
2023-04-21T19:52:36.083Z,8.45
2023-04-21T19:55:07.521Z,14.90
2023-04-21T19:57:39.104Z,6.57
2023-04-21T20:00:13.229Z,5.35
2023-04-21T20:02:41.883Z,4.68
2023-04-21T20:05:21.664Z,5.28
2023-04-21T20:07:50.738Z,5.63
2023-04-21T20:10:37.582Z,7.88
2023-04-21T20:13:09.475Z,3.85
2023-04-21T20:15:42.287Z,4.43
2023-04-21T20:18:12.717Z,4.15
2023-04-21T20:20:41.727Z,8.52
2023-04-21T20:23:09.289Z,7.72
2023-04-21T20:25:36.433Z,10.45
2023-04-21T20:28:03.453Z,5.55
2023-04-21T20:30:30.511Z,8.98
2023-04-21T20:32:57.423Z,9.43
2023-04-21T20:35:24.320Z,7.82
2023-04-21T20:37:53.522Z,8.07
2023-04-21T20:40:21.801Z,7.80
2023-04-21T20:42:48.851Z,6.57
2023-04-21T20:45:17.440Z,8.68
2023-04-21T20:47:44.334Z,11.27
2023-04-21T20:50:12.717Z,8.95
2023-04-21T20:52:39.600Z,7.05
2023-04-21T20:55:07.141Z,10.85
2023-04-21T20:57:34.474Z,19.73
2023-04-21T21:00:02.108Z,16.35
2023-04-21T21:02:29.196Z,33.83
2023-04-21T21:04:56.269Z,63.05
2023-04-21T21:07:23.300Z,83.07
2023-04-21T21:09:50.820Z,79.32
2023-04-21T21:12:17.890Z,86.78
2023-04-21T21:14:44.955Z,96.10
2023-04-21T21:17:13.029Z,84.00
2023-04-21T21:19:40.576Z,97.25
2023-04-21T21:22:07.908Z,114.53
2023-04-21T21:24:34.809Z,108.78
2023-04-21T21:27:01.758Z,93.57
2023-04-21T21:29:29.783Z,84.15
2023-04-21T21:31:56.777Z,87.18
2023-04-21T21:34:23.887Z,90.25
2023-04-21T21:36:51.113Z,88.78
2023-04-21T21:39:18.001Z,81.15
2023-04-21T21:41:44.770Z,71.07
2023-04-21T21:44:11.699Z,72.32
2023-04-21T21:46:38.651Z,62.53
2023-04-21T21:49:05.508Z,61.85
2023-04-21T21:51:32.545Z,61.40
2023-04-21T21:53:59.459Z,53.28
2023-04-21T21:56:27.138Z,57.33
2023-04-21T21:58:54.064Z,49.83
2023-04-21T22:01:20.987Z,57.92
2023-04-21T22:03:48.044Z,74.45
2023-04-21T22:06:17.227Z,75.32
2023-04-21T22:08:45.688Z,77.68
2023-04-21T22:11:12.633Z,80.65
2023-04-21T22:13:39.625Z,87.70
2023-04-21T22:16:07.113Z,121.35
2023-04-21T22:18:34.054Z,118.63
2023-04-21T22:21:00.918Z,99.63
2023-04-21T22:23:27.820Z,77.70
2023-04-21T22:25:54.647Z,73.68
2023-04-21T22:28:21.581Z,53.42
2023-04-21T22:30:48.489Z,51.80
2023-04-21T22:33:15.580Z,45.83
2023-04-21T22:35:42.425Z,39.53
2023-04-21T22:38:09.326Z,43.10
2023-04-21T22:40:36.241Z,52.58
2023-04-21T22:43:03.853Z,44.10
2023-04-21T22:45:30.730Z,49.75
2023-04-21T22:47:57.691Z,41.38
2023-04-21T22:50:25.722Z,44.13
2023-04-21T22:52:52.825Z,44.78
2023-04-21T22:55:19.667Z,48.88
2023-04-21T22:57:46.612Z,52.03
2023-04-21T23:00:15.474Z,42.83
2023-04-21T23:02:42.653Z,50.65
2023-04-21T23:05:10.007Z,47.67
2023-04-21T23:07:36.893Z,46.08
2023-04-21T23:10:04.064Z,54.25
2023-04-21T23:12:30.955Z,48.47
2023-04-21T23:14:57.820Z,58.22
2023-04-21T23:17:24.767Z,46.95
2023-04-21T23:19:51.693Z,40.60
2023-04-21T23:22:18.539Z,38.85
2023-04-21T23:24:45.432Z,31.92
2023-04-21T23:27:12.331Z,28.13
2023-04-21T23:29:39.727Z,37.35
2023-04-21T23:32:07.029Z,33.47
2023-04-21T23:34:34.002Z,25.88
2023-04-21T23:37:00.884Z,24.52
2023-04-21T23:39:27.950Z,26.95
2023-04-21T23:41:54.863Z,37.92
2023-04-21T23:44:21.734Z,34.65
2023-04-21T23:46:48.558Z,37.25
2023-04-21T23:49:15.371Z,44.15
2023-04-21T23:51:42.232Z,30.38
2023-04-21T23:54:09.657Z,33.63
2023-04-21T23:56:37.056Z,27.08
2023-04-21T23:59:03.898Z,42.30
